sensor_id;sensor_type;location;lat;lon;timestamp;P1;durP1;ratioP1;P2;durP2;ratioP2
78183;SDS011;67442;44.570;18.610;2024-02-04T00:02:11;292.27;;;95.80;;
78183;SDS011;67442;44.570;18.610;2024-02-04T00:04:40;307.52;;;105.78;;
78183;SDS011;67442;44.570;18.610;2024-02-04T00:07:07;376.58;;;124.00;;
78183;SDS011;67442;44.570;18.610;2024-02-04T00:09:34;393.60;;;133.70;;
78183;SDS011;67442;44.570;18.610;2024-02-04T00:12:01;584.67;;;171.05;;
78183;SDS011;67442;44.570;18.610;2024-02-04T00:14:29;493.83;;;159.52;;
78183;SDS011;67442;44.570;18.610;2024-02-04T00:16:57;485.95;;;155.90;;
78183;SDS011;67442;44.570;18.610;2024-02-04T00:19:24;527.38;;;171.23;;
78183;SDS011;67442;44.570;18.610;2024-02-04T00:21:52;743.67;;;238.30;;
78183;SDS011;67442;44.570;18.610;2024-02-04T00:24:20;474.42;;;162.23;;
78183;SDS011;67442;44.570;18.610;2024-02-04T00:26:47;586.17;;;211.95;;
78183;SDS011;67442;44.570;18.610;2024-02-04T00:29:15;818.03;;;279.90;;
78183;SDS011;67442;44.570;18.610;2024-02-04T00:31:42;581.03;;;202.93;;
78183;SDS011;67442;44.570;18.610;2024-02-04T00:34:09;527.65;;;183.27;;
78183;SDS011;67442;44.570;18.610;2024-02-04T00:36:36;507.60;;;176.80;;
78183;SDS011;67442;44.570;18.610;2024-02-04T00:39:04;481.27;;;173.65;;
78183;SDS011;67442;44.570;18.610;2024-02-04T00:41:33;488.40;;;174.93;;
78183;SDS011;67442;44.570;18.610;2024-02-04T00:44:01;466.08;;;170.45;;
78183;SDS011;67442;44.570;18.610;2024-02-04T00:46:27;509.52;;;180.55;;
78183;SDS011;67442;44.570;18.610;2024-02-04T00:48:54;521.33;;;186.45;;
78183;SDS011;67442;44.570;18.610;2024-02-04T00:51:22;572.95;;;203.20;;
78183;SDS011;67442;44.570;18.610;2024-02-04T00:53:49;559.75;;;193.80;;
78183;SDS011;67442;44.570;18.610;2024-02-04T00:56:17;563.30;;;203.00;;
78183;SDS011;67442;44.570;18.610;2024-02-04T00:58:44;498.95;;;171.75;;
78183;SDS011;67442;44.570;18.610;2024-02-04T01:01:11;404.95;;;142.70;;
78183;SDS011;67442;44.570;18.610;2024-02-04T01:03:39;401.75;;;139.57;;
78183;SDS011;67442;44.570;18.610;2024-02-04T01:06:06;390.83;;;136.05;;
78183;SDS011;67442;44.570;18.610;2024-02-04T01:08:33;453.52;;;151.05;;
78183;SDS011;67442;44.570;18.610;2024-02-04T01:11:05;420.77;;;148.13;;
78183;SDS011;67442;44.570;18.610;2024-02-04T01:13:32;381.15;;;132.95;;
78183;SDS011;67442;44.570;18.610;2024-02-04T01:16:00;339.75;;;116.45;;
78183;SDS011;67442;44.570;18.610;2024-02-04T01:18:27;300.70;;;101.72;;
78183;SDS011;67442;44.570;18.610;2024-02-04T01:20:57;277.13;;;98.60;;
78183;SDS011;67442;44.570;18.610;2024-02-04T01:23:26;352.67;;;122.82;;
78183;SDS011;67442;44.570;18.610;2024-02-04T01:25:53;292.27;;;100.68;;
78183;SDS011;67442;44.570;18.610;2024-02-04T01:28:21;161.93;;;55.65;;
78183;SDS011;67442;44.570;18.610;2024-02-04T01:30:48;122.95;;;44.17;;
78183;SDS011;67442;44.570;18.610;2024-02-04T01:33:15;162.35;;;60.10;;
78183;SDS011;67442;44.570;18.610;2024-02-04T01:35:43;201.75;;;72.85;;
78183;SDS011;67442;44.570;18.610;2024-02-04T01:38:10;220.20;;;80.43;;
78183;SDS011;67442;44.570;18.610;2024-02-04T01:40:37;209.80;;;73.95;;
78183;SDS011;67442;44.570;18.610;2024-02-04T01:43:04;227.13;;;81.22;;
78183;SDS011;67442;44.570;18.610;2024-02-04T01:45:32;226.27;;;83.90;;
78183;SDS011;67442;44.570;18.610;2024-02-04T01:47:59;277.00;;;98.40;;
78183;SDS011;67442;44.570;18.610;2024-02-04T01:50:26;283.00;;;102.05;;
78183;SDS011;67442;44.570;18.610;2024-02-04T01:52:53;318.08;;;113.53;;
78183;SDS011;67442;44.570;18.610;2024-02-04T01:55:21;254.10;;;91.93;;
78183;SDS011;67442;44.570;18.610;2024-02-04T01:57:48;307.67;;;105.47;;
78183;SDS011;67442;44.570;18.610;2024-02-04T02:00:16;392.75;;;136.90;;
78183;SDS011;67442;44.570;18.610;2024-02-04T02:02:44;369.13;;;130.05;;
78183;SDS011;67442;44.570;18.610;2024-02-04T02:05:12;321.15;;;116.03;;
78183;SDS011;67442;44.570;18.610;2024-02-04T02:07:40;323.60;;;113.78;;
78183;SDS011;67442;44.570;18.610;2024-02-04T02:10:10;307.75;;;111.22;;
78183;SDS011;67442;44.570;18.610;2024-02-04T02:12:43;271.90;;;96.57;;
78183;SDS011;67442;44.570;18.610;2024-02-04T02:15:15;303.83;;;105.63;;
78183;SDS011;67442;44.570;18.610;2024-02-04T02:20:36;247.27;;;89.80;;
78183;SDS011;67442;44.570;18.610;2024-02-04T02:23:12;298.20;;;106.30;;
78183;SDS011;67442;44.570;18.610;2024-02-04T02:25:41;284.17;;;102.28;;
78183;SDS011;67442;44.570;18.610;2024-02-04T02:28:09;279.17;;;99.57;;
78183;SDS011;67442;44.570;18.610;2024-02-04T02:30:37;312.95;;;109.05;;
78183;SDS011;67442;44.570;18.610;2024-02-04T02:33:04;313.95;;;111.32;;
78183;SDS011;67442;44.570;18.610;2024-02-04T02:35:34;258.33;;;93.20;;
78183;SDS011;67442;44.570;18.610;2024-02-04T02:38:07;252.23;;;93.47;;
78183;SDS011;67442;44.570;18.610;2024-02-04T02:40:38;254.63;;;92.57;;
78183;SDS011;67442;44.570;18.610;2024-02-04T02:43:06;323.10;;;120.20;;
78183;SDS011;67442;44.570;18.610;2024-02-04T02:45:36;319.08;;;111.47;;
78183;SDS011;67442;44.570;18.610;2024-02-04T02:48:04;297.55;;;112.13;;
78183;SDS011;67442;44.570;18.610;2024-02-04T02:50:34;226.15;;;79.35;;
78183;SDS011;67442;44.570;18.610;2024-02-04T02:53:01;217.70;;;82.50;;
78183;SDS011;67442;44.570;18.610;2024-02-04T02:55:28;209.63;;;77.03;;
78183;SDS011;67442;44.570;18.610;2024-02-04T02:57:55;210.02;;;75.43;;
78183;SDS011;67442;44.570;18.610;2024-02-04T03:00:23;194.65;;;64.68;;
78183;SDS011;67442;44.570;18.610;2024-02-04T03:02:50;291.58;;;108.68;;
78183;SDS011;67442;44.570;18.610;2024-02-04T03:05:17;303.65;;;107.93;;
78183;SDS011;67442;44.570;18.610;2024-02-04T03:07:45;247.75;;;91.10;;
78183;SDS011;67442;44.570;18.610;2024-02-04T03:10:12;222.45;;;81.72;;
78183;SDS011;67442;44.570;18.610;2024-02-04T03:12:39;225.93;;;77.13;;
78183;SDS011;67442;44.570;18.610;2024-02-04T03:15:06;226.68;;;78.95;;
78183;SDS011;67442;44.570;18.610;2024-02-04T03:17:34;197.65;;;69.10;;
78183;SDS011;67442;44.570;18.610;2024-02-04T03:20:01;220.63;;;80.50;;
78183;SDS011;67442;44.570;18.610;2024-02-04T03:22:29;181.60;;;66.72;;
78183;SDS011;67442;44.570;18.610;2024-02-04T03:24:56;182.07;;;62.85;;
78183;SDS011;67442;44.570;18.610;2024-02-04T03:27:23;172.02;;;58.95;;
78183;SDS011;67442;44.570;18.610;2024-02-04T03:29:51;132.23;;;47.35;;
78183;SDS011;67442;44.570;18.610;2024-02-04T03:32:18;129.40;;;45.45;;
78183;SDS011;67442;44.570;18.610;2024-02-04T03:34:46;116.82;;;43.50;;
78183;SDS011;67442;44.570;18.610;2024-02-04T03:37:13;181.82;;;68.10;;
78183;SDS011;67442;44.570;18.610;2024-02-04T03:39:40;165.98;;;61.28;;
78183;SDS011;67442;44.570;18.610;2024-02-04T03:42:08;147.90;;;54.83;;
78183;SDS011;67442;44.570;18.610;2024-02-04T03:44:35;161.93;;;55.47;;
78183;SDS011;67442;44.570;18.610;2024-02-04T03:47:02;172.13;;;60.28;;
78183;SDS011;67442;44.570;18.610;2024-02-04T03:49:30;198.85;;;67.78;;
78183;SDS011;67442;44.570;18.610;2024-02-04T03:51:57;178.10;;;63.38;;
78183;SDS011;67442;44.570;18.610;2024-02-04T03:54:25;189.85;;;67.68;;
78183;SDS011;67442;44.570;18.610;2024-02-04T03:56:52;177.65;;;63.60;;
78183;SDS011;67442;44.570;18.610;2024-02-04T03:59:19;223.95;;;79.63;;
78183;SDS011;67442;44.570;18.610;2024-02-04T04:01:47;276.63;;;97.38;;
78183;SDS011;67442;44.570;18.610;2024-02-04T04:04:15;270.92;;;88.88;;
78183;SDS011;67442;44.570;18.610;2024-02-04T04:06:42;244.30;;;83.72;;
78183;SDS011;67442;44.570;18.610;2024-02-04T04:09:09;248.57;;;88.72;;
78183;SDS011;67442;44.570;18.610;2024-02-04T04:11:36;284.40;;;101.45;;
78183;SDS011;67442;44.570;18.610;2024-02-04T04:14:03;271.92;;;102.15;;
78183;SDS011;67442;44.570;18.610;2024-02-04T04:16:30;266.85;;;97.20;;
78183;SDS011;67442;44.570;18.610;2024-02-04T04:18:57;226.73;;;82.55;;
78183;SDS011;67442;44.570;18.610;2024-02-04T04:21:25;296.33;;;100.82;;
78183;SDS011;67442;44.570;18.610;2024-02-04T04:23:52;218.57;;;80.97;;
78183;SDS011;67442;44.570;18.610;2024-02-04T04:26:19;188.68;;;70.63;;
78183;SDS011;67442;44.570;18.610;2024-02-04T04:28:47;190.65;;;69.72;;
78183;SDS011;67442;44.570;18.610;2024-02-04T04:31:14;186.00;;;68.53;;
78183;SDS011;67442;44.570;18.610;2024-02-04T04:33:41;185.30;;;69.18;;
78183;SDS011;67442;44.570;18.610;2024-02-04T04:36:08;239.52;;;78.95;;
78183;SDS011;67442;44.570;18.610;2024-02-04T04:38:36;268.67;;;91.43;;
78183;SDS011;67442;44.570;18.610;2024-02-04T04:41:03;223.65;;;81.25;;
78183;SDS011;67442;44.570;18.610;2024-02-04T04:43:31;222.13;;;76.70;;
78183;SDS011;67442;44.570;18.610;2024-02-04T04:45:58;161.82;;;57.10;;
78183;SDS011;67442;44.570;18.610;2024-02-04T04:48:28;198.27;;;68.38;;
78183;SDS011;67442;44.570;18.610;2024-02-04T04:50:55;217.90;;;70.20;;
78183;SDS011;67442;44.570;18.610;2024-02-04T04:53:22;210.93;;;68.25;;
78183;SDS011;67442;44.570;18.610;2024-02-04T04:55:50;210.02;;;68.88;;
78183;SDS011;67442;44.570;18.610;2024-02-04T04:58:17;214.00;;;71.68;;
78183;SDS011;67442;44.570;18.610;2024-02-04T05:00:45;207.77;;;68.75;;
78183;SDS011;67442;44.570;18.610;2024-02-04T05:03:12;216.80;;;64.70;;
78183;SDS011;67442;44.570;18.610;2024-02-04T05:05:39;174.93;;;60.72;;
78183;SDS011;67442;44.570;18.610;2024-02-04T05:08:07;183.18;;;61.20;;
78183;SDS011;67442;44.570;18.610;2024-02-04T05:10:34;187.27;;;64.90;;
78183;SDS011;67442;44.570;18.610;2024-02-04T05:13:01;174.25;;;54.85;;
78183;SDS011;67442;44.570;18.610;2024-02-04T05:15:29;186.65;;;58.63;;
78183;SDS011;67442;44.570;18.610;2024-02-04T05:17:56;180.25;;;59.22;;
78183;SDS011;67442;44.570;18.610;2024-02-04T05:20:24;166.95;;;55.97;;
78183;SDS011;67442;44.570;18.610;2024-02-04T05:22:51;214.15;;;75.78;;
78183;SDS011;67442;44.570;18.610;2024-02-04T05:25:20;183.07;;;59.45;;
78183;SDS011;67442;44.570;18.610;2024-02-04T05:27:47;146.82;;;55.63;;
78183;SDS011;67442;44.570;18.610;2024-02-04T05:30:15;164.23;;;56.67;;
78183;SDS011;67442;44.570;18.610;2024-02-04T05:32:42;195.82;;;67.82;;
78183;SDS011;67442;44.570;18.610;2024-02-04T05:35:10;180.57;;;61.88;;
78183;SDS011;67442;44.570;18.610;2024-02-04T05:37:38;201.98;;;64.90;;
78183;SDS011;67442;44.570;18.610;2024-02-04T05:40:05;179.40;;;62.25;;
78183;SDS011;67442;44.570;18.610;2024-02-04T05:42:34;189.70;;;63.42;;
78183;SDS011;67442;44.570;18.610;2024-02-04T05:45:03;176.93;;;60.08;;
78183;SDS011;67442;44.570;18.610;2024-02-04T05:47:31;149.52;;;52.70;;
78183;SDS011;67442;44.570;18.610;2024-02-04T05:49:58;196.45;;;64.85;;
78183;SDS011;67442;44.570;18.610;2024-02-04T05:52:26;227.80;;;78.35;;
78183;SDS011;67442;44.570;18.610;2024-02-04T05:54:53;210.25;;;70.97;;
78183;SDS011;67442;44.570;18.610;2024-02-04T05:57:21;170.48;;;60.60;;
78183;SDS011;67442;44.570;18.610;2024-02-04T05:59:49;175.02;;;61.38;;
78183;SDS011;67442;44.570;18.610;2024-02-04T06:02:18;211.45;;;73.35;;
78183;SDS011;67442;44.570;18.610;2024-02-04T06:04:45;190.93;;;69.93;;
78183;SDS011;67442;44.570;18.610;2024-02-04T06:07:14;198.40;;;68.90;;
78183;SDS011;67442;44.570;18.610;2024-02-04T06:09:41;187.40;;;65.85;;
78183;SDS011;67442;44.570;18.610;2024-02-04T06:12:08;198.95;;;67.25;;
78183;SDS011;67442;44.570;18.610;2024-02-04T06:14:36;191.23;;;66.68;;
78183;SDS011;67442;44.570;18.610;2024-02-04T06:17:05;197.30;;;68.80;;
78183;SDS011;67442;44.570;18.610;2024-02-04T06:19:34;178.18;;;61.90;;
78183;SDS011;67442;44.570;18.610;2024-02-04T06:22:01;149.07;;;51.75;;
78183;SDS011;67442;44.570;18.610;2024-02-04T06:24:29;154.68;;;54.15;;
78183;SDS011;67442;44.570;18.610;2024-02-04T06:26:56;163.90;;;55.63;;
78183;SDS011;67442;44.570;18.610;2024-02-04T06:29:24;140.35;;;50.85;;
78183;SDS011;67442;44.570;18.610;2024-02-04T06:31:51;161.05;;;55.15;;
78183;SDS011;67442;44.570;18.610;2024-02-04T06:34:18;134.13;;;47.45;;
78183;SDS011;67442;44.570;18.610;2024-02-04T06:36:46;115.18;;;42.50;;
78183;SDS011;67442;44.570;18.610;2024-02-04T06:39:13;122.32;;;44.35;;
78183;SDS011;67442;44.570;18.610;2024-02-04T06:41:41;162.43;;;55.50;;
78183;SDS011;67442;44.570;18.610;2024-02-04T06:44:08;169.00;;;59.63;;
78183;SDS011;67442;44.570;18.610;2024-02-04T06:46:35;158.23;;;55.70;;
78183;SDS011;67442;44.570;18.610;2024-02-04T06:49:03;151.85;;;55.67;;
78183;SDS011;67442;44.570;18.610;2024-02-04T06:51:30;174.48;;;60.42;;
78183;SDS011;67442;44.570;18.610;2024-02-04T06:53:56;145.80;;;52.60;;
78183;SDS011;67442;44.570;18.610;2024-02-04T06:56:24;140.10;;;49.50;;
78183;SDS011;67442;44.570;18.610;2024-02-04T06:58:51;179.95;;;63.80;;
78183;SDS011;67442;44.570;18.610;2024-02-04T07:01:19;205.90;;;71.57;;
78183;SDS011;67442;44.570;18.610;2024-02-04T07:03:46;154.45;;;55.72;;
78183;SDS011;67442;44.570;18.610;2024-02-04T07:06:13;143.75;;;50.75;;
78183;SDS011;67442;44.570;18.610;2024-02-04T07:08:41;135.82;;;48.03;;
78183;SDS011;67442;44.570;18.610;2024-02-04T07:11:08;148.50;;;53.58;;
78183;SDS011;67442;44.570;18.610;2024-02-04T07:13:35;145.73;;;53.50;;
78183;SDS011;67442;44.570;18.610;2024-02-04T07:16:03;113.13;;;42.25;;
78183;SDS011;67442;44.570;18.610;2024-02-04T07:18:31;148.23;;;52.35;;
78183;SDS011;67442;44.570;18.610;2024-02-04T07:20:58;119.28;;;44.78;;
78183;SDS011;67442;44.570;18.610;2024-02-04T07:23:25;165.70;;;64.35;;
78183;SDS011;67442;44.570;18.610;2024-02-04T07:25:53;347.27;;;124.72;;
78183;SDS011;67442;44.570;18.610;2024-02-04T07:28:20;295.48;;;112.65;;
78183;SDS011;67442;44.570;18.610;2024-02-04T07:30:48;400.88;;;135.05;;
78183;SDS011;67442;44.570;18.610;2024-02-04T07:33:15;565.95;;;164.13;;
78183;SDS011;67442;44.570;18.610;2024-02-04T07:35:42;251.20;;;86.40;;
78183;SDS011;67442;44.570;18.610;2024-02-04T07:38:10;211.10;;;82.20;;
78183;SDS011;67442;44.570;18.610;2024-02-04T07:40:37;208.63;;;79.55;;
78183;SDS011;67442;44.570;18.610;2024-02-04T07:43:05;166.48;;;67.78;;
78183;SDS011;67442;44.570;18.610;2024-02-04T07:45:34;154.25;;;62.35;;
78183;SDS011;67442;44.570;18.610;2024-02-04T07:48:01;121.03;;;52.83;;
78183;SDS011;67442;44.570;18.610;2024-02-04T07:50:28;122.38;;;47.17;;
78183;SDS011;67442;44.570;18.610;2024-02-04T07:52:55;131.70;;;52.63;;
78183;SDS011;67442;44.570;18.610;2024-02-04T07:55:22;133.93;;;55.47;;
78183;SDS011;67442;44.570;18.610;2024-02-04T07:57:50;127.93;;;52.10;;
78183;SDS011;67442;44.570;18.610;2024-02-04T08:00:17;132.18;;;52.85;;
78183;SDS011;67442;44.570;18.610;2024-02-04T08:02:45;130.73;;;52.70;;
78183;SDS011;67442;44.570;18.610;2024-02-04T08:05:13;112.65;;;44.88;;
78183;SDS011;67442;44.570;18.610;2024-02-04T08:07:40;132.43;;;53.53;;
78183;SDS011;67442;44.570;18.610;2024-02-04T08:10:07;116.40;;;48.33;;
78183;SDS011;67442;44.570;18.610;2024-02-04T08:12:34;116.32;;;48.65;;
78183;SDS011;67442;44.570;18.610;2024-02-04T08:15:02;120.47;;;47.83;;
78183;SDS011;67442;44.570;18.610;2024-02-04T08:17:30;107.45;;;47.88;;
78183;SDS011;67442;44.570;18.610;2024-02-04T08:19:59;98.20;;;42.97;;
78183;SDS011;67442;44.570;18.610;2024-02-04T08:22:26;92.25;;;41.90;;
78183;SDS011;67442;44.570;18.610;2024-02-04T08:24:54;104.28;;;44.35;;
78183;SDS011;67442;44.570;18.610;2024-02-04T08:27:21;119.57;;;52.00;;
78183;SDS011;67442;44.570;18.610;2024-02-04T08:29:48;105.15;;;43.03;;
78183;SDS011;67442;44.570;18.610;2024-02-04T08:32:16;110.53;;;48.92;;
78183;SDS011;67442;44.570;18.610;2024-02-04T08:34:43;95.78;;;42.53;;
78183;SDS011;67442;44.570;18.610;2024-02-04T08:37:10;72.13;;;29.40;;
78183;SDS011;67442;44.570;18.610;2024-02-04T08:39:38;57.05;;;25.45;;
78183;SDS011;67442;44.570;18.610;2024-02-04T08:42:06;63.80;;;26.58;;
78183;SDS011;67442;44.570;18.610;2024-02-04T08:44:33;73.95;;;31.45;;
78183;SDS011;67442;44.570;18.610;2024-02-04T08:47:00;86.93;;;35.20;;
78183;SDS011;67442;44.570;18.610;2024-02-04T08:49:29;86.43;;;36.92;;
78183;SDS011;67442;44.570;18.610;2024-02-04T08:51:56;97.78;;;42.67;;
78183;SDS011;67442;44.570;18.610;2024-02-04T08:54:23;90.18;;;39.55;;
78183;SDS011;67442;44.570;18.610;2024-02-04T08:56:51;81.32;;;36.90;;
78183;SDS011;67442;44.570;18.610;2024-02-04T08:59:18;85.65;;;37.20;;
78183;SDS011;67442;44.570;18.610;2024-02-04T09:01:45;77.03;;;34.97;;
78183;SDS011;67442;44.570;18.610;2024-02-04T09:04:13;80.90;;;34.92;;
78183;SDS011;67442;44.570;18.610;2024-02-04T09:06:40;79.07;;;34.17;;
78183;SDS011;67442;44.570;18.610;2024-02-04T09:09:08;66.78;;;31.50;;
78183;SDS011;67442;44.570;18.610;2024-02-04T09:11:35;68.25;;;29.15;;
78183;SDS011;67442;44.570;18.610;2024-02-04T09:14:03;66.57;;;31.08;;
78183;SDS011;67442;44.570;18.610;2024-02-04T09:16:30;76.30;;;33.30;;
78183;SDS011;67442;44.570;18.610;2024-02-04T09:18:57;73.13;;;30.85;;
78183;SDS011;67442;44.570;18.610;2024-02-04T09:21:25;76.60;;;33.47;;
78183;SDS011;67442;44.570;18.610;2024-02-04T09:23:56;71.78;;;31.63;;
78183;SDS011;67442;44.570;18.610;2024-02-04T09:26:23;69.82;;;29.02;;
78183;SDS011;67442;44.570;18.610;2024-02-04T09:28:51;74.45;;;30.52;;
78183;SDS011;67442;44.570;18.610;2024-02-04T09:31:18;61.50;;;28.63;;
78183;SDS011;67442;44.570;18.610;2024-02-04T09:33:45;55.70;;;26.92;;
78183;SDS011;67442;44.570;18.610;2024-02-04T09:36:13;58.35;;;26.20;;
78183;SDS011;67442;44.570;18.610;2024-02-04T09:38:41;60.92;;;24.80;;
78183;SDS011;67442;44.570;18.610;2024-02-04T09:41:11;63.58;;;28.77;;
78183;SDS011;67442;44.570;18.610;2024-02-04T09:43:39;62.40;;;26.98;;
78183;SDS011;67442;44.570;18.610;2024-02-04T09:46:10;55.10;;;26.55;;
78183;SDS011;67442;44.570;18.610;2024-02-04T09:48:42;59.50;;;23.85;;
78183;SDS011;67442;44.570;18.610;2024-02-04T09:51:11;46.33;;;22.80;;
78183;SDS011;67442;44.570;18.610;2024-02-04T09:53:41;54.67;;;24.13;;
78183;SDS011;67442;44.570;18.610;2024-02-04T09:56:14;55.28;;;24.55;;
78183;SDS011;67442;44.570;18.610;2024-02-04T09:58:42;52.38;;;21.73;;
78183;SDS011;67442;44.570;18.610;2024-02-04T10:01:09;54.30;;;22.13;;
78183;SDS011;67442;44.570;18.610;2024-02-04T10:03:37;72.30;;;23.38;;
78183;SDS011;67442;44.570;18.610;2024-02-04T10:06:07;57.30;;;23.45;;
78183;SDS011;67442;44.570;18.610;2024-02-04T10:08:39;47.35;;;19.90;;
78183;SDS011;67442;44.570;18.610;2024-02-04T10:11:06;38.15;;;18.45;;
78183;SDS011;67442;44.570;18.610;2024-02-04T10:13:44;39.45;;;18.98;;
78183;SDS011;67442;44.570;18.610;2024-02-04T10:16:15;33.33;;;16.08;;
78183;SDS011;67442;44.570;18.610;2024-02-04T10:18:46;39.65;;;16.95;;
78183;SDS011;67442;44.570;18.610;2024-02-04T10:21:19;38.58;;;18.00;;
78183;SDS011;67442;44.570;18.610;2024-02-04T10:23:50;37.53;;;17.20;;
78183;SDS011;67442;44.570;18.610;2024-02-04T10:26:21;43.40;;;17.65;;
78183;SDS011;67442;44.570;18.610;2024-02-04T10:28:49;38.17;;;16.92;;
78183;SDS011;67442;44.570;18.610;2024-02-04T10:31:18;37.13;;;17.52;;
78183;SDS011;67442;44.570;18.610;2024-02-04T10:33:49;38.20;;;18.77;;
78183;SDS011;67442;44.570;18.610;2024-02-04T10:36:16;45.22;;;20.92;;
78183;SDS011;67442;44.570;18.610;2024-02-04T10:38:47;41.80;;;20.73;;
78183;SDS011;67442;44.570;18.610;2024-02-04T10:41:18;47.35;;;21.58;;
78183;SDS011;67442;44.570;18.610;2024-02-04T10:43:51;41.65;;;19.92;;
78183;SDS011;67442;44.570;18.610;2024-02-04T10:46:23;50.47;;;18.77;;
78183;SDS011;67442;44.570;18.610;2024-02-04T10:48:57;39.70;;;20.52;;
78183;SDS011;67442;44.570;18.610;2024-02-04T10:51:29;43.00;;;19.80;;
78183;SDS011;67442;44.570;18.610;2024-02-04T10:53:58;36.67;;;18.05;;
78183;SDS011;67442;44.570;18.610;2024-02-04T10:56:38;33.00;;;15.07;;
78183;SDS011;67442;44.570;18.610;2024-02-04T10:59:14;33.75;;;15.65;;
78183;SDS011;67442;44.570;18.610;2024-02-04T11:01:43;37.03;;;17.45;;
78183;SDS011;67442;44.570;18.610;2024-02-04T11:04:15;35.97;;;16.75;;
78183;SDS011;67442;44.570;18.610;2024-02-04T11:06:44;41.60;;;18.90;;
78183;SDS011;67442;44.570;18.610;2024-02-04T11:09:12;38.03;;;17.33;;
78183;SDS011;67442;44.570;18.610;2024-02-04T11:11:40;37.13;;;18.65;;
78183;SDS011;67442;44.570;18.610;2024-02-04T11:14:09;41.00;;;20.08;;
78183;SDS011;67442;44.570;18.610;2024-02-04T11:19:55;39.72;;;19.20;;
78183;SDS011;67442;44.570;18.610;2024-02-04T11:25:21;29.02;;;14.40;;
78183;SDS011;67442;44.570;18.610;2024-02-04T11:27:58;26.95;;;12.93;;
78183;SDS011;67442;44.570;18.610;2024-02-04T11:30:26;37.78;;;16.52;;
78183;SDS011;67442;44.570;18.610;2024-02-04T11:33:00;29.38;;;15.88;;
78183;SDS011;67442;44.570;18.610;2024-02-04T11:35:29;34.22;;;16.58;;
78183;SDS011;67442;44.570;18.610;2024-02-04T11:37:57;43.75;;;20.38;;
78183;SDS011;67442;44.570;18.610;2024-02-04T11:40:35;43.45;;;19.40;;
78183;SDS011;67442;44.570;18.610;2024-02-04T11:43:06;45.67;;;19.35;;
78183;SDS011;67442;44.570;18.610;2024-02-04T11:45:40;38.95;;;16.08;;
78183;SDS011;67442;44.570;18.610;2024-02-04T11:48:11;38.45;;;15.18;;
78183;SDS011;67442;44.570;18.610;2024-02-04T11:50:40;33.60;;;15.43;;
78183;SDS011;67442;44.570;18.610;2024-02-04T11:53:08;33.33;;;15.25;;
78183;SDS011;67442;44.570;18.610;2024-02-04T11:55:40;31.80;;;15.35;;
78183;SDS011;67442;44.570;18.610;2024-02-04T11:58:12;34.28;;;14.93;;
78183;SDS011;67442;44.570;18.610;2024-02-04T12:00:41;34.80;;;14.77;;
78183;SDS011;67442;44.570;18.610;2024-02-04T12:03:12;29.92;;;14.75;;
78183;SDS011;67442;44.570;18.610;2024-02-04T12:05:40;40.65;;;19.08;;
78183;SDS011;67442;44.570;18.610;2024-02-04T12:08:09;61.65;;;25.60;;
78183;SDS011;67442;44.570;18.610;2024-02-04T12:10:39;73.88;;;34.45;;
78183;SDS011;67442;44.570;18.610;2024-02-04T12:13:07;91.47;;;40.33;;
78183;SDS011;67442;44.570;18.610;2024-02-04T12:15:34;73.88;;;38.55;;
78183;SDS011;67442;44.570;18.610;2024-02-04T12:20:35;76.68;;;36.38;;
78183;SDS011;67442;44.570;18.610;2024-02-04T12:23:07;83.60;;;40.75;;
78183;SDS011;67442;44.570;18.610;2024-02-04T12:25:34;95.40;;;45.80;;
78183;SDS011;67442;44.570;18.610;2024-02-04T12:28:02;100.85;;;48.45;;
78183;SDS011;67442;44.570;18.610;2024-02-04T12:30:31;97.53;;;49.95;;
78183;SDS011;67442;44.570;18.610;2024-02-04T12:33:02;100.05;;;48.40;;
78183;SDS011;67442;44.570;18.610;2024-02-04T12:35:31;108.63;;;55.67;;
78183;SDS011;67442;44.570;18.610;2024-02-04T12:37:58;121.18;;;56.45;;
78183;SDS011;67442;44.570;18.610;2024-02-04T12:40:31;90.00;;;45.55;;
78183;SDS011;67442;44.570;18.610;2024-02-04T12:42:59;127.90;;;60.63;;
78183;SDS011;67442;44.570;18.610;2024-02-04T12:45:30;147.05;;;73.50;;
78183;SDS011;67442;44.570;18.610;2024-02-04T12:47:58;70.30;;;36.03;;
78183;SDS011;67442;44.570;18.610;2024-02-04T12:50:25;62.88;;;31.00;;
78183;SDS011;67442;44.570;18.610;2024-02-04T12:53:06;56.05;;;28.27;;
78183;SDS011;67442;44.570;18.610;2024-02-04T12:55:35;51.20;;;24.83;;
78183;SDS011;67442;44.570;18.610;2024-02-04T13:00:34;52.05;;;25.45;;
78183;SDS011;67442;44.570;18.610;2024-02-04T13:03:03;58.67;;;29.02;;
78183;SDS011;67442;44.570;18.610;2024-02-04T13:05:30;57.85;;;28.80;;
78183;SDS011;67442;44.570;18.610;2024-02-04T13:07:58;68.10;;;33.67;;
78183;SDS011;67442;44.570;18.610;2024-02-04T13:10:30;62.90;;;29.40;;
78183;SDS011;67442;44.570;18.610;2024-02-04T13:13:07;55.05;;;27.17;;
78183;SDS011;67442;44.570;18.610;2024-02-04T13:18:06;51.38;;;25.92;;
78183;SDS011;67442;44.570;18.610;2024-02-04T13:20:37;50.72;;;23.17;;
78183;SDS011;67442;44.570;18.610;2024-02-04T13:23:06;49.10;;;24.17;;
78183;SDS011;67442;44.570;18.610;2024-02-04T13:25:36;57.40;;;22.65;;
78183;SDS011;67442;44.570;18.610;2024-02-04T13:28:07;46.28;;;23.77;;
78183;SDS011;67442;44.570;18.610;2024-02-04T13:30:43;49.85;;;22.77;;
78183;SDS011;67442;44.570;18.610;2024-02-04T13:33:18;56.60;;;23.27;;
78183;SDS011;67442;44.570;18.610;2024-02-04T13:38:14;53.53;;;23.30;;
78183;SDS011;67442;44.570;18.610;2024-02-04T13:40:42;46.38;;;20.50;;
78183;SDS011;67442;44.570;18.610;2024-02-04T13:43:13;62.67;;;29.27;;
78183;SDS011;67442;44.570;18.610;2024-02-04T13:45:44;47.85;;;21.83;;
78183;SDS011;67442;44.570;18.610;2024-02-04T13:48:15;46.58;;;22.67;;
78183;SDS011;67442;44.570;18.610;2024-02-04T13:50:44;44.95;;;20.17;;
78183;SDS011;67442;44.570;18.610;2024-02-04T13:53:11;48.42;;;22.52;;
78183;SDS011;67442;44.570;18.610;2024-02-04T13:55:39;52.90;;;24.92;;
78183;SDS011;67442;44.570;18.610;2024-02-04T13:58:11;46.20;;;21.30;;
78183;SDS011;67442;44.570;18.610;2024-02-04T14:00:40;50.92;;;21.73;;
78183;SDS011;67442;44.570;18.610;2024-02-04T14:03:08;42.65;;;22.00;;
78183;SDS011;67442;44.570;18.610;2024-02-04T14:05:41;45.55;;;21.52;;
78183;SDS011;67442;44.570;18.610;2024-02-04T14:08:09;50.17;;;25.15;;
78183;SDS011;67442;44.570;18.610;2024-02-04T14:10:36;53.50;;;24.83;;
78183;SDS011;67442;44.570;18.610;2024-02-04T14:13:07;56.20;;;26.52;;
78183;SDS011;67442;44.570;18.610;2024-02-04T14:15:39;63.75;;;28.35;;
78183;SDS011;67442;44.570;18.610;2024-02-04T14:18:07;80.68;;;37.20;;
78183;SDS011;67442;44.570;18.610;2024-02-04T14:20:39;63.30;;;29.15;;
78183;SDS011;67442;44.570;18.610;2024-02-04T14:23:06;64.25;;;28.00;;
78183;SDS011;67442;44.570;18.610;2024-02-04T14:25:34;54.35;;;24.10;;